TimeCDT,TemperatureF,Dew PointF,Humidity,Sea Level PressureIn,VisibilityMPH,Wind Direction,Wind SpeedMPH,Gust SpeedMPH,PrecipitationIn,Events,Conditions,WindDirDegrees,DateUTC
12:40 AM,78.8,73.4,83,29.94,10.0,ENE,10.4,-,N/A,Thunderstorm,Scattered Clouds,70,2013-07-14 05:40:00
12:52 AM,77.0,73.9,90,29.91,10.0,ESE,8.1,-,N/A,Thunderstorm,Thunderstorm,120,2013-07-14 05:52:00
1:00 AM,69.8,66.2,88,29.94,2.0,WNW,42.6,63.3,0.01,Rain-Thunderstorm,Thunderstorms and Rain,290,2013-07-14 06:00:00
1:02 AM,69.8,66.2,88,29.97,1.0,WNW,36.8,63.3,0.02,Rain-Thunderstorm,Heavy Thunderstorms and Rain,290,2013-07-14 06:02:00
1:07 AM,69.8,68.0,94,30.01,0.5,WNW,36.8,63.3,0.23,Fog-Rain-Thunderstorm,Heavy Thunderstorms and Rain,290,2013-07-14 06:07:00
1:15 AM,68.0,68.0,100,29.99,0.2,NNW,28.8,44.9,0.65,Fog-Rain-Thunderstorm,Heavy Thunderstorms and Rain,340,2013-07-14 06:15:00
1:21 AM,68.0,68.0,100,29.95,0.8,North,34.5,42.6,0.88,Rain-Thunderstorm,Heavy Thunderstorms and Rain,350,2013-07-14 06:21:00
1:24 AM,68.0,68.0,100,29.96,1.0,North,31.1,42.6,0.95,Rain-Thunderstorm,Heavy Thunderstorms and Rain,350,2013-07-14 06:24:00
1:32 AM,68.0,68.0,100,29.96,3.0,North,29.9,42.6,1.00,Rain-Thunderstorm,Light Thunderstorms and Rain,360,2013-07-14 06:32:00
1:50 AM,68.0,68.0,100,29.97,10.0,NNE,21.9,33.4,1.00,Thunderstorm,Overcast,20,2013-07-14 06:50:00
1:52 AM,68.0,68.0,100,29.94,10.0,NNE,23.0,33.4,1.00,Thunderstorm,Overcast,20,2013-07-14 06:52:00
2:13 AM,68.0,66.2,94,29.97,8.0,NNE,15.0,21.9,0.05,Rain,Light Rain,30,2013-07-14 07:13:00
2:52 AM,70.0,66.0,87,29.92,10.0,NNE,12.7,-,0.06,,Mostly Cloudy,30,2013-07-14 07:52:00
3:52 AM,69.1,66.9,93,29.97,10.0,WNW,10.4,-,0.00,,Mostly Cloudy,290,2013-07-14 08:52:00
4:52 AM,68.0,66.0,93,29.95,10.0,North,10.4,-,0.00,,Scattered Clouds,350,2013-07-14 09:52:00
5:52 AM,68.0,64.9,90,29.97,10.0,NNW,8.1,-,N/A,,Clear,340,2013-07-14 10:52:00
6:52 AM,66.0,64.0,93,30.01,10.0,NNW,15.0,20.7,N/A,,Clear,340,2013-07-14 11:52:00
7:26 AM,66.2,64.4,94,30.06,10.0,North,13.8,23.0,N/A,,Scattered Clouds,350,2013-07-14 12:26:00
7:35 AM,66.2,64.4,94,30.06,10.0,North,18.4,24.2,N/A,,Mostly Cloudy,350,2013-07-14 12:35:00
7:52 AM,66.9,64.9,93,30.04,10.0,North,18.4,27.6,N/A,,Overcast,350,2013-07-14 12:52:00
8:52 AM,68.0,64.9,90,30.05,10.0,North,17.3,26.5,N/A,,Overcast,10,2013-07-14 13:52:00
9:52 AM,66.9,64.9,93,30.08,10.0,North,17.3,26.5,N/A,,Overcast,360,2013-07-14 14:52:00
10:35 AM,66.2,64.4,94,30.12,10.0,North,18.4,24.2,N/A,,Overcast,350,2013-07-14 15:35:00
10:52 AM,66.0,63.0,90,30.10,10.0,North,15.0,24.2,N/A,,Overcast,360,2013-07-14 15:52:00
11:52 AM,69.1,64.0,84,30.09,10.0,NNE,17.3,24.2,N/A,,Overcast,20,2013-07-14 16:52:00
12:52 PM,69.1,64.0,84,30.11,10.0,North,15.0,-,N/A,,Overcast,10,2013-07-14 17:52:00
1:35 PM,71.6,64.4,78,30.14,10.0,NNE,11.5,-,N/A,,Overcast,20,2013-07-14 18:35:00
1:52 PM,73.0,66.0,79,30.11,10.0,NNE,10.4,-,N/A,,Overcast,20,2013-07-14 18:52:00
2:52 PM,73.0,64.9,76,30.09,10.0,North,12.7,-,N/A,,Overcast,10,2013-07-14 19:52:00
3:52 PM,72.0,66.0,81,30.13,10.0,North,8.1,-,N/A,,Overcast,360,2013-07-14 20:52:00
4:52 PM,73.0,66.0,79,30.12,10.0,North,9.2,-,N/A,,Overcast,360,2013-07-14 21:52:00
5:52 PM,73.9,66.9,79,30.13,10.0,North,5.8,-,N/A,,Overcast,360,2013-07-14 22:52:00
6:38 PM,75.2,66.2,73,30.13,10.0,North,6.9,-,N/A,,Overcast,350,2013-07-14 23:38:00
6:52 PM,75.0,66.9,76,30.11,10.0,NNE,10.4,-,N/A,,Mostly Cloudy,20,2013-07-14 23:52:00
7:52 PM,72.0,64.9,78,30.12,10.0,NE,9.2,-,N/A,,Scattered Clouds,40,2013-07-15 00:52:00
8:52 PM,71.1,64.9,81,30.11,10.0,ENE,9.2,-,N/A,,Clear,70,2013-07-15 01:52:00
9:52 PM,69.1,64.0,84,30.13,10.0,ENE,6.9,-,N/A,,Clear,60,2013-07-15 02:52:00
10:52 PM,68.0,64.0,87,30.14,10.0,ENE,4.6,-,N/A,,Clear,70,2013-07-15 03:52:00
11:52 PM,68.0,64.9,90,30.13,10.0,SSE,3.5,-,N/A,,Clear,150,2013-07-15 04:52:00